Time;durP1;ratioP1;P1;durP2;ratioP2;P2;SDS_P1;SDS_P2;PMS_P1;PMS_P2;Temp;Humidity;BMP_temperature;BMP_pressure;BME280_temperature;BME280_humidity;BME280_pressure;Samples;Min_cycle;Max_cycle;Signal;HPM_P1;HPM_P2
2023/12/17 00:01:26;;;;;;;13.73;4.80;;;;;;;;;;4901461;29;20125;-82
2023/12/17 00:03:53;;;;;;;15.00;5.05;;;;;;;;;;4894447;29;20056;-79
2023/12/17 00:06:19;;;;;;;21.90;6.20;;;;;;;;;;4908810;29;20032;-81
2023/12/17 00:08:45;;;;;;;14.93;5.40;;;;;;;;;;4904309;29;20028;-79
2023/12/17 00:11:11;;;;;;;13.30;4.65;;;;;;;;;;4902035;29;20036;-78
2023/12/17 00:13:38;;;;;;;18.73;5.13;;;;;;;;;;4899390;29;20043;-78
2023/12/17 00:16:04;;;;;;;17.23;6.15;;;;;;;;;;4908935;29;20027;-77
2023/12/17 00:18:30;;;;;;;11.25;5.70;;;;;;;;;;4915670;29;20045;-81
2023/12/17 00:20:56;;;;;;;13.38;4.50;;;;;;;;;;4899453;29;20044;-79
2023/12/17 00:23:22;;;;;;;11.10;4.78;;;;;;;;;;4911249;29;20028;-80
2023/12/17 00:25:48;;;;;;;13.65;4.28;;;;;;;;;;4912909;29;20039;-79
2023/12/17 00:28:14;;;;;;;15.95;4.53;;;;;;;;;;4907347;29;20024;-79
2023/12/17 00:30:40;;;;;;;10.52;4.35;;;;;;;;;;4909092;29;20374;-80
2023/12/17 00:33:06;;;;;;;12.60;4.53;;;;;;;;;;4910077;29;20103;-81
2023/12/17 00:35:32;;;;;;;13.27;4.22;;;;;;;;;;4906937;29;20058;-78
2023/12/17 00:37:59;;;;;;;13.27;4.32;;;;;;;;;;4909904;29;20391;-78
2023/12/17 00:40:25;;;;;;;12.70;4.03;;;;;;;;;;4898916;29;20525;-80
2023/12/17 00:42:51;;;;;;;9.27;3.83;;;;;;;;;;4894438;29;20044;-82
2023/12/17 00:45:17;;;;;;;16.20;4.47;;;;;;;;;;4901633;29;20040;-83
2023/12/17 00:47:43;;;;;;;8.95;4.15;;;;;;;;;;4907886;29;20036;-78
2023/12/17 00:50:09;;;;;;;12.43;4.80;;;;;;;;;;4909717;29;20044;-78
2023/12/17 00:52:35;;;;;;;9.80;4.20;;;;;;;;;;4896911;29;20021;-78
2023/12/17 00:55:01;;;;;;;7.85;4.32;;;;;;;;;;4901475;29;20028;-80
2023/12/17 00:57:30;;;;;;;12.50;4.45;;;;;;;;;;4909839;29;20045;-78
2023/12/17 00:59:56;;;;;;;15.20;4.20;;;;;;;;;;4900435;29;20120;-78
2023/12/17 01:02:22;;;;;;;13.35;4.35;;;;;;;;;;4900916;29;20172;-79
2023/12/17 01:04:48;;;;;;;7.93;3.83;;;;;;;;;;4897718;29;20087;-80
2023/12/17 01:07:14;;;;;;;14.52;4.75;;;;;;;;;;4909619;29;20041;-79
2023/12/17 01:09:40;;;;;;;13.75;5.28;;;;;;;;;;4896319;29;20035;-79
2023/12/17 01:12:06;;;;;;;14.23;4.75;;;;;;;;;;4907398;29;20028;-79
2023/12/17 01:14:34;;;;;;;7.95;3.83;;;;;;;;;;4896886;29;20067;-78
2023/12/17 01:17:04;;;;;;;16.42;4.28;;;;;;;;;;4927647;29;20031;-78
2023/12/17 01:19:31;;;;;;;10.05;3.78;;;;;;;;;;4930673;29;20501;-79
2023/12/17 01:21:57;;;;;;;12.50;3.70;;;;;;;;;;4905528;29;20463;-82
2023/12/17 01:24:24;;;;;;;10.73;4.65;;;;;;;;;;4915398;29;20036;-79
2023/12/17 01:26:50;;;;;;;12.40;4.78;;;;;;;;;;4903244;29;20115;-78
2023/12/17 01:29:16;;;;;;;11.27;4.15;;;;;;;;;;4905484;29;20066;-79
2023/12/17 01:31:42;;;;;;;12.07;4.70;;;;;;;;;;4903816;29;20044;-77
2023/12/17 01:34:08;;;;;;;20.60;8.45;;;;;;;;;;4901007;29;20031;-75
2023/12/17 01:36:34;;;;;;;32.25;12.70;;;;;;;;;;4901311;29;20076;-75
2023/12/17 01:39:00;;;;;;;16.75;4.57;;;;;;;;;;4913964;29;20487;-78
2023/12/17 01:41:26;;;;;;;12.45;4.63;;;;;;;;;;4904072;29;20040;-81
2023/12/17 01:43:52;;;;;;;8.45;4.82;;;;;;;;;;4901588;29;20463;-78
2023/12/17 01:46:18;;;;;;;11.30;4.63;;;;;;;;;;4911473;29;20391;-78
2023/12/17 01:48:45;;;;;;;13.77;4.82;;;;;;;;;;4903245;29;20115;-77
2023/12/17 01:51:11;;;;;;;18.85;4.85;;;;;;;;;;4907610;29;20138;-78
2023/12/17 01:53:37;;;;;;;10.55;5.20;;;;;;;;;;4919788;29;20047;-78
2023/12/17 01:56:04;;;;;;;11.45;4.53;;;;;;;;;;4909821;29;20041;-77
2023/12/17 01:58:31;;;;;;;7.68;5.03;;;;;;;;;;4900966;29;20047;-79
2023/12/17 02:00:57;;;;;;;15.88;4.45;;;;;;;;;;4920986;29;20371;-77
2023/12/17 02:03:24;;;;;;;8.80;4.32;;;;;;;;;;4907845;29;20292;-78
2023/12/17 02:05:50;;;;;;;11.43;4.13;;;;;;;;;;4914331;29;20036;-82
2023/12/17 02:08:16;;;;;;;16.25;4.35;;;;;;;;;;4912556;29;20047;-79
2023/12/17 02:10:42;;;;;;;13.80;4.72;;;;;;;;;;4912344;29;20020;-79
2023/12/17 02:13:10;;;;;;;10.68;4.03;;;;;;;;;;4909733;29;20040;-78
2023/12/17 02:15:37;;;;;;;15.20;5.30;;;;;;;;;;4918807;29;20020;-79
2023/12/17 02:18:03;;;;;;;13.10;5.10;;;;;;;;;;4907171;29;20029;-77
2023/12/17 02:20:29;;;;;;;16.88;4.60;;;;;;;;;;4903652;29;20640;-79
2023/12/17 02:23:00;;;;;;;16.45;5.30;;;;;;;;;;4912619;29;20478;-78
2023/12/17 02:25:27;;;;;;;16.42;4.30;;;;;;;;;;4912281;29;20063;-79
2023/12/17 02:27:55;;;;;;;11.70;4.22;;;;;;;;;;4905299;29;20510;-78
2023/12/17 02:30:21;;;;;;;15.18;5.45;;;;;;;;;;4911105;29;20040;-79
2023/12/17 02:32:48;;;;;;;16.13;5.10;;;;;;;;;;4908352;29;20048;-78
2023/12/17 02:35:14;;;;;;;15.07;4.80;;;;;;;;;;4897534;29;20511;-79
2023/12/17 02:37:40;;;;;;;12.05;4.45;;;;;;;;;;4910296;29;20426;-80
2023/12/17 02:40:06;;;;;;;18.25;5.93;;;;;;;;;;4910202;29;20051;-78
2023/12/17 02:42:32;;;;;;;15.85;4.90;;;;;;;;;;4905994;29;20044;-79
2023/12/17 02:44:58;;;;;;;14.07;5.40;;;;;;;;;;4911634;29;20565;-79
2023/12/17 02:47:24;;;;;;;12.68;4.93;;;;;;;;;;4932246;29;20470;-78
2023/12/17 02:49:50;;;;;;;12.23;5.10;;;;;;;;;;4912144;29;20502;-78
2023/12/17 02:52:16;;;;;;;14.57;4.85;;;;;;;;;;4895990;29;20041;-79
2023/12/17 02:54:43;;;;;;;20.27;5.00;;;;;;;;;;4898921;29;20039;-79
2023/12/17 02:57:09;;;;;;;18.75;5.50;;;;;;;;;;4903189;29;20048;-79
2023/12/17 02:59:35;;;;;;;12.95;4.57;;;;;;;;;;4900040;29;20060;-79
2023/12/17 03:02:01;;;;;;;11.77;4.57;;;;;;;;;;4899185;29;20032;-79
2023/12/17 03:04:27;;;;;;;13.35;5.07;;;;;;;;;;4895352;29;20057;-79
2023/12/17 03:06:53;;;;;;;16.85;6.22;;;;;;;;;;4903717;29;20675;-78
2023/12/17 03:09:19;;;;;;;12.38;4.65;;;;;;;;;;4911895;29;20039;-83
2023/12/17 03:11:45;;;;;;;19.52;5.15;;;;;;;;;;4906709;29;20103;-82
2023/12/17 03:14:13;;;;;;;12.90;4.93;;;;;;;;;;4907415;29;20781;-78
2023/12/17 03:16:39;;;;;;;17.98;5.22;;;;;;;;;;4926206;29;20036;-79
2023/12/17 03:19:05;;;;;;;19.13;5.65;;;;;;;;;;4902303;29;20124;-79
2023/12/17 03:21:31;;;;;;;26.80;6.50;;;;;;;;;;4910324;29;20036;-79
2023/12/17 03:23:57;;;;;;;23.85;6.32;;;;;;;;;;4911292;29;20028;-79
2023/12/17 03:26:23;;;;;;;14.73;6.07;;;;;;;;;;4909622;29;20036;-79
2023/12/17 03:28:49;;;;;;;18.67;4.55;;;;;;;;;;4906903;29;20067;-78
2023/12/17 03:31:16;;;;;;;16.42;5.97;;;;;;;;;;4922074;29;20032;-79
2023/12/17 03:33:42;;;;;;;19.08;5.60;;;;;;;;;;4919408;29;20451;-80
2023/12/17 03:36:09;;;;;;;17.08;4.95;;;;;;;;;;4913506;29;20039;-79
2023/12/17 03:38:35;;;;;;;16.67;5.70;;;;;;;;;;4907445;29;20055;-78
2023/12/17 03:41:01;;;;;;;19.20;5.97;;;;;;;;;;4895378;29;20044;-79
2023/12/17 03:43:27;;;;;;;16.45;6.30;;;;;;;;;;4903567;29;20028;-79
2023/12/17 03:45:53;;;;;;;14.57;5.22;;;;;;;;;;4911023;29;20099;-79
2023/12/17 03:48:19;;;;;;;20.10;5.40;;;;;;;;;;4908101;29;20051;-79
2023/12/17 03:50:45;;;;;;;14.80;5.25;;;;;;;;;;4894372;29;20093;-83
2023/12/17 03:53:11;;;;;;;15.70;5.80;;;;;;;;;;4908939;29;20033;-79
2023/12/17 03:55:37;;;;;;;12.73;5.00;;;;;;;;;;4908034;29;20024;-79
2023/12/17 03:58:04;;;;;;;15.70;5.45;;;;;;;;;;4900732;29;20047;-78
2023/12/17 04:00:30;;;;;;;19.45;5.53;;;;;;;;;;4906590;29;20036;-79
2023/12/17 04:02:56;;;;;;;14.60;5.00;;;;;;;;;;4908825;29;20044;-78
2023/12/17 04:05:27;;;;;;;13.25;5.60;;;;;;;;;;4900700;29;20036;-78
2023/12/17 04:07:53;;;;;;;15.25;5.15;;;;;;;;;;4905772;29;20060;-78
2023/12/17 04:10:19;;;;;;;15.52;5.45;;;;;;;;;;4902643;29;20091;-78
2023/12/17 04:12:45;;;;;;;12.35;4.90;;;;;;;;;;4908413;29;20063;-79
2023/12/17 04:15:11;;;;;;;20.00;6.93;;;;;;;;;;4898379;29;20060;-78
2023/12/17 04:17:38;;;;;;;20.90;5.68;;;;;;;;;;4927107;29;20028;-79
2023/12/17 04:20:04;;;;;;;20.40;5.57;;;;;;;;;;4900474;29;20390;-79
2023/12/17 04:22:30;;;;;;;22.20;6.28;;;;;;;;;;4907699;29;20096;-79
2023/12/17 04:24:56;;;;;;;12.73;5.72;;;;;;;;;;4909715;29;20035;-79
2023/12/17 04:27:22;;;;;;;16.45;5.13;;;;;;;;;;4913868;29;20039;-80
2023/12/17 04:29:48;;;;;;;15.48;5.32;;;;;;;;;;4910080;29;20036;-79
2023/12/17 04:32:14;;;;;;;16.38;6.25;;;;;;;;;;4930914;29;20110;-79
2023/12/17 04:34:40;;;;;;;12.07;5.22;;;;;;;;;;4934771;29;20028;-80
2023/12/17 04:37:06;;;;;;;14.05;5.03;;;;;;;;;;4913605;29;20032;-79
2023/12/17 04:39:32;;;;;;;16.25;5.97;;;;;;;;;;4912818;29;20040;-81
2023/12/17 04:41:58;;;;;;;19.23;4.60;;;;;;;;;;4898606;29;20038;-79
2023/12/17 04:44:24;;;;;;;16.50;5.60;;;;;;;;;;4899169;29;20052;-80
2023/12/17 04:46:51;;;;;;;16.35;5.40;;;;;;;;;;4906621;29;20036;-79
2023/12/17 04:49:17;;;;;;;26.80;5.47;;;;;;;;;;4896930;29;20085;-79
2023/12/17 04:51:43;;;;;;;15.40;5.43;;;;;;;;;;4910388;29;20384;-80
2023/12/17 04:54:09;;;;;;;13.98;5.60;;;;;;;;;;4914864;29;20032;-79
2023/12/17 04:56:35;;;;;;;19.80;6.05;;;;;;;;;;4911251;29;20099;-79
2023/12/17 04:59:01;;;;;;;17.50;6.45;;;;;;;;;;4908917;29;20601;-79
2023/12/17 05:01:27;;;;;;;14.65;6.13;;;;;;;;;;4899291;29;20076;-80
2023/12/17 05:03:53;;;;;;;16.30;7.40;;;;;;;;;;4896819;29;20052;-80
2023/12/17 05:06:19;;;;;;;20.83;6.75;;;;;;;;;;4898716;29;20045;-79
2023/12/17 05:08:45;;;;;;;19.75;7.40;;;;;;;;;;4902158;29;20035;-80
2023/12/17 05:11:11;;;;;;;21.75;7.45;;;;;;;;;;4912151;29;20043;-80
2023/12/17 05:13:37;;;;;;;23.08;6.40;;;;;;;;;;4902049;29;20077;-79
2023/12/17 05:16:03;;;;;;;18.40;7.53;;;;;;;;;;4907072;29;20036;-79
2023/12/17 05:18:29;;;;;;;19.70;5.95;;;;;;;;;;4914626;29;20039;-81
2023/12/17 05:20:55;;;;;;;21.02;5.57;;;;;;;;;;4914686;29;20043;-79
2023/12/17 05:23:21;;;;;;;13.35;5.30;;;;;;;;;;4913047;29;20047;-79
2023/12/17 05:25:47;;;;;;;17.95;6.65;;;;;;;;;;4907439;29;20031;-80
2023/12/17 05:28:13;;;;;;;19.90;5.28;;;;;;;;;;4903575;29;20043;-78
2023/12/17 05:30:39;;;;;;;17.77;5.60;;;;;;;;;;4905045;29;20027;-79
2023/12/17 05:33:07;;;;;;;15.57;5.10;;;;;;;;;;4916443;29;20036;-78
2023/12/17 05:35:33;;;;;;;15.85;5.80;;;;;;;;;;4914512;29;20437;-83
2023/12/17 05:37:59;;;;;;;14.68;4.88;;;;;;;;;;4912754;29;20036;-80
2023/12/17 05:40:25;;;;;;;17.55;5.55;;;;;;;;;;4915080;29;20043;-80
2023/12/17 05:42:51;;;;;;;13.32;5.63;;;;;;;;;;4906368;29;20498;-81
2023/12/17 05:45:17;;;;;;;10.57;5.00;;;;;;;;;;4913569;29;20497;-79
2023/12/17 05:47:43;;;;;;;16.02;5.38;;;;;;;;;;4909166;29;20040;-79
2023/12/17 05:50:10;;;;;;;17.63;4.85;;;;;;;;;;4896341;29;20033;-79
2023/12/17 05:52:36;;;;;;;19.02;5.65;;;;;;;;;;4908926;29;20650;-80
2023/12/17 05:55:03;;;;;;;14.88;6.30;;;;;;;;;;4895445;29;20155;-84
2023/12/17 05:57:29;;;;;;;18.60;6.55;;;;;;;;;;4909193;29;20036;-79
2023/12/17 05:59:55;;;;;;;11.95;6.10;;;;;;;;;;4906127;29;20383;-80
2023/12/17 06:02:21;;;;;;;12.07;5.53;;;;;;;;;;4910700;29;20031;-79
2023/12/17 06:04:47;;;;;;;15.00;6.50;;;;;;;;;;4906442;29;20051;-80
2023/12/17 06:07:13;;;;;;;14.77;5.82;;;;;;;;;;4906434;29;20032;-81
2023/12/17 06:09:40;;;;;;;19.33;6.18;;;;;;;;;;4900617;29;20075;-77
2023/12/17 06:12:06;;;;;;;17.15;5.85;;;;;;;;;;4905109;29;20100;-79
2023/12/17 06:14:32;;;;;;;18.42;6.40;;;;;;;;;;4905802;29;20029;-77
2023/12/17 06:16:58;;;;;;;11.65;6.07;;;;;;;;;;4906627;29;20387;-78
2023/12/17 06:19:24;;;;;;;11.90;5.65;;;;;;;;;;4907759;29;20028;-78
2023/12/17 06:21:50;;;;;;;12.43;6.63;;;;;;;;;;4906015;29;20203;-79
2023/12/17 06:24:16;;;;;;;13.65;5.53;;;;;;;;;;4906832;29;20039;-78
2023/12/17 06:26:42;;;;;;;15.57;6.20;;;;;;;;;;4903821;29;20466;-78
2023/12/17 06:29:13;;;;;;;12.25;6.00;;;;;;;;;;4906759;29;20044;-82
2023/12/17 06:31:40;;;;;;;16.98;6.55;;;;;;;;;;4909299;29;20111;-79
2023/12/17 06:34:06;;;;;;;23.98;6.72;;;;;;;;;;4907326;29;20040;-79
2023/12/17 06:36:32;;;;;;;15.30;6.07;;;;;;;;;;4912494;29;20039;-78
2023/12/17 06:38:58;;;;;;;23.23;5.40;;;;;;;;;;4906968;29;20028;-80
2023/12/17 06:41:24;;;;;;;13.32;5.68;;;;;;;;;;4910947;29;20118;-78
2023/12/17 06:43:50;;;;;;;15.98;5.60;;;;;;;;;;4913635;29;20024;-78
2023/12/17 06:46:17;;;;;;;11.85;4.55;;;;;;;;;;4916008;29;20040;-79
2023/12/17 06:48:43;;;;;;;15.50;5.03;;;;;;;;;;4913291;29;20028;-78
2023/12/17 06:51:12;;;;;;;15.35;5.22;;;;;;;;;;4913181;29;20121;-79
2023/12/17 06:53:38;;;;;;;20.10;5.25;;;;;;;;;;4911130;29;20032;-80
2023/12/17 06:56:05;;;;;;;25.42;8.05;;;;;;;;;;4912101;29;20036;-78
2023/12/17 06:58:31;;;;;;;23.02;7.05;;;;;;;;;;4913901;29;20602;-81
2023/12/17 07:00:57;;;;;;;22.23;6.53;;;;;;;;;;4913704;29;20107;-81
2023/12/17 07:03:24;;;;;;;20.83;6.55;;;;;;;;;;4910267;29;20055;-80
2023/12/17 07:05:50;;;;;;;21.20;5.93;;;;;;;;;;4906034;29;20024;-79
2023/12/17 07:08:16;;;;;;;12.05;5.35;;;;;;;;;;4913205;29;20028;-78
2023/12/17 07:10:42;;;;;;;17.20;5.43;;;;;;;;;;4910332;29;20043;-79
2023/12/17 07:13:08;;;;;;;19.15;5.47;;;;;;;;;;4904843;29;20052;-79
2023/12/17 07:15:34;;;;;;;17.80;6.07;;;;;;;;;;4917899;29;20032;-82
2023/12/17 07:18:01;;;;;;;15.07;6.30;;;;;;;;;;4912071;29;20035;-78
2023/12/17 07:20:27;;;;;;;17.33;6.05;;;;;;;;;;4910049;29;20050;-80
2023/12/17 07:22:53;;;;;;;19.88;6.68;;;;;;;;;;4912088;29;20916;-80
2023/12/17 07:25:20;;;;;;;21.75;6.18;;;;;;;;;;4910426;29;20032;-78
2023/12/17 07:27:46;;;;;;;19.10;6.68;;;;;;;;;;4910140;29;20036;-80
2023/12/17 07:30:12;;;;;;;22.75;6.43;;;;;;;;;;4913892;29;20031;-81
2023/12/17 07:32:38;;;;;;;27.98;9.75;;;;;;;;;;4914202;29;20033;-78
2023/12/17 07:35:07;;;;;;;23.98;7.25;;;;;;;;;;4913142;29;20032;-77
2023/12/17 07:37:33;;;;;;;19.95;5.97;;;;;;;;;;4906150;29;20029;-80
2023/12/17 07:39:59;;;;;;;20.23;6.47;;;;;;;;;;4902472;29;20558;-77
2023/12/17 07:42:25;;;;;;;14.35;6.13;;;;;;;;;;4909762;29;20500;-81
2023/12/17 07:44:51;;;;;;;21.65;5.93;;;;;;;;;;4911025;29;20036;-76
2023/12/17 07:47:17;;;;;;;19.60;5.20;;;;;;;;;;4913004;29;20123;-78
2023/12/17 07:49:43;;;;;;;19.30;5.53;;;;;;;;;;4895747;29;20058;-79
2023/12/17 07:52:09;;;;;;;20.13;7.47;;;;;;;;;;4911228;29;20664;-80
2023/12/17 07:54:35;;;;;;;19.42;7.50;;;;;;;;;;4901326;29;20051;-72
2023/12/17 07:57:01;;;;;;;17.95;6.28;;;;;;;;;;4900762;29;20035;-76
2023/12/17 07:59:27;;;;;;;17.80;5.85;;;;;;;;;;4906587;29;20028;-78
2023/12/17 08:01:53;;;;;;;19.25;5.82;;;;;;;;;;4911703;29;20430;-77
2023/12/17 08:04:19;;;;;;;12.10;5.68;;;;;;;;;;4914964;29;20846;-79
2023/12/17 08:06:45;;;;;;;13.40;5.72;;;;;;;;;;4911070;29;20131;-79
2023/12/17 08:09:11;;;;;;;18.58;5.70;;;;;;;;;;4913145;29;20092;-77
2023/12/17 08:11:38;;;;;;;15.23;5.95;;;;;;;;;;4912369;29;20032;-77
2023/12/17 08:14:04;;;;;;;18.67;6.18;;;;;;;;;;4916084;29;20482;-76
2023/12/17 08:16:30;;;;;;;16.48;5.97;;;;;;;;;;4904618;29;20040;-77
2023/12/17 08:18:57;;;;;;;15.80;6.70;;;;;;;;;;4907471;29;20028;-75
2023/12/17 08:21:23;;;;;;;19.42;8.50;;;;;;;;;;4908856;29;20041;-78
2023/12/17 08:23:49;;;;;;;18.27;8.63;;;;;;;;;;4902523;29;20116;-77
2023/12/17 08:26:15;;;;;;;22.08;9.93;;;;;;;;;;4907060;29;20051;-76
2023/12/17 08:28:41;;;;;;;22.05;10.35;;;;;;;;;;4899017;29;20067;-78
2023/12/17 08:31:09;;;;;;;24.13;10.02;;;;;;;;;;4904058;29;20028;-78
2023/12/17 08:33:36;;;;;;;24.40;9.65;;;;;;;;;;4913227;29;20024;-77
2023/12/17 08:36:02;;;;;;;29.10;9.35;;;;;;;;;;4914242;29;20135;-78
2023/12/17 08:38:28;;;;;;;19.90;10.02;;;;;;;;;;4927495;29;20110;-77
2023/12/17 08:40:54;;;;;;;29.90;10.13;;;;;;;;;;4912307;29;20424;-78
2023/12/17 08:43:21;;;;;;;30.50;10.63;;;;;;;;;;4911881;29;20095;-76
2023/12/17 08:45:47;;;;;;;27.17;10.82;;;;;;;;;;4910879;29;20123;-79
2023/12/17 08:48:13;;;;;;;23.48;10.05;;;;;;;;;;4921388;29;20474;-76
2023/12/17 08:50:39;;;;;;;25.33;11.43;;;;;;;;;;4917236;29;20024;-77
2023/12/17 08:53:05;;;;;;;30.70;10.65;;;;;;;;;;4915856;29;20032;-76
2023/12/17 08:55:31;;;;;;;30.00;10.48;;;;;;;;;;4913404;29;20088;-77
2023/12/17 08:57:57;;;;;;;33.63;9.90;;;;;;;;;;4914637;29;20059;-78
2023/12/17 09:00:23;;;;;;;30.15;8.70;;;;;;;;;;4918373;29;20028;-75
2023/12/17 09:02:49;;;;;;;30.42;7.80;;;;;;;;;;4921699;29;20028;-77
2023/12/17 09:05:15;;;;;;;26.52;9.77;;;;;;;;;;4913404;29;20060;-76
2023/12/17 09:07:41;;;;;;;33.00;7.20;;;;;;;;;;4905353;29;20646;-79
2023/12/17 09:10:07;;;;;;;29.65;7.72;;;;;;;;;;4914768;29;20040;-77
2023/12/17 09:12:34;;;;;;;29.00;8.77;;;;;;;;;;4911898;29;20033;-77
2023/12/17 09:15:00;;;;;;;27.50;7.38;;;;;;;;;;4904308;29;20033;-80
2023/12/17 09:17:26;;;;;;;24.23;6.63;;;;;;;;;;4922376;29;20142;-78
2023/12/17 09:19:52;;;;;;;40.72;7.78;;;;;;;;;;4903183;29;20144;-79
2023/12/17 09:22:19;;;;;;;24.50;6.22;;;;;;;;;;4909514;29;20058;-82
2023/12/17 09:24:45;;;;;;;25.00;6.75;;;;;;;;;;4901978;29;21528;-84
2023/12/17 09:27:11;;;;;;;23.85;6.72;;;;;;;;;;4926097;29;20028;-78
2023/12/17 09:29:37;;;;;;;22.55;6.55;;;;;;;;;;4915332;29;20052;-79
2023/12/17 09:32:04;;;;;;;23.85;6.25;;;;;;;;;;4921653;29;20051;-77
2023/12/17 09:34:30;;;;;;;29.25;5.93;;;;;;;;;;4909264;29;20467;-77
2023/12/17 09:36:56;;;;;;;23.50;6.20;;;;;;;;;;4907464;29;20059;-77
2023/12/17 09:39:22;;;;;;;22.23;5.13;;;;;;;;;;4903936;29;20088;-77
2023/12/17 09:41:48;;;;;;;21.25;5.07;;;;;;;;;;4907717;29;20102;-76
2023/12/17 09:44:14;;;;;;;22.10;6.03;;;;;;;;;;4905141;29;20041;-76
2023/12/17 09:46:40;;;;;;;27.60;8.07;;;;;;;;;;4901937;29;20039;-72
2023/12/17 09:49:06;;;;;;;24.33;6.28;;;;;;;;;;4906023;29;20032;-72
2023/12/17 09:51:41;;;;;;;27.05;7.10;;;;;;;;;;4899659;29;20036;-73
2023/12/17 09:54:07;;;;;;;26.98;7.18;;;;;;;;;;4911226;29;20029;-76
2023/12/17 09:56:33;;;;;;;23.50;7.80;;;;;;;;;;4902891;29;20103;-75
2023/12/17 09:58:59;;;;;;;27.48;7.90;;;;;;;;;;4905452;29;20129;-73
2023/12/17 10:01:27;;;;;;;25.85;7.72;;;;;;;;;;4906170;29;20032;-77
2023/12/17 10:03:53;;;;;;;31.80;9.65;;;;;;;;;;4913072;29;20139;-75
2023/12/17 10:06:20;;;;;;;31.67;9.13;;;;;;;;;;4898171;29;20055;-78
2023/12/17 10:08:47;;;;;;;26.88;9.07;;;;;;;;;;4901361;29;20033;-80
2023/12/17 10:11:13;;;;;;;31.23;8.80;;;;;;;;;;4907720;29;20039;-76
2023/12/17 10:13:39;;;;;;;31.95;10.68;;;;;;;;;;4925743;29;20040;-71
2023/12/17 10:16:05;;;;;;;61.60;25.55;;;;;;;;;;4909704;29;20241;-76
2023/12/17 10:18:31;;;;;;;26.80;9.07;;;;;;;;;;4895980;29;20495;-76
2023/12/17 10:20:57;;;;;;;32.33;10.57;;;;;;;;;;4905129;29;20028;-74
2023/12/17 10:23:23;;;;;;;27.45;11.15;;;;;;;;;;4909594;29;20024;-77
2023/12/17 10:26:00;;;;;;;39.35;12.57;;;;;;;;;;4906766;29;20104;-76
2023/12/17 10:28:27;;;;;;;30.33;13.98;;;;;;;;;;4893886;29;20029;-75
2023/12/17 10:30:54;;;;;;;30.75;15.38;;;;;;;;;;4898884;29;20029;-76
2023/12/17 10:33:22;;;;;;;31.73;17.05;;;;;;;;;;4912175;29;20040;-74
2023/12/17 10:35:48;;;;;;;42.97;17.95;;;;;;;;;;4903275;29;20032;-74
2023/12/17 10:38:15;;;;;;;32.47;17.67;;;;;;;;;;4894547;29;20029;-78
2023/12/17 10:40:42;;;;;;;38.15;19.25;;;;;;;;;;4912888;29;20032;-76
2023/12/17 10:43:10;;;;;;;35.75;19.13;;;;;;;;;;4906591;29;20094;-75
2023/12/17 10:45:37;;;;;;;39.63;20.10;;;;;;;;;;4896806;29;20458;-76
2023/12/17 10:48:03;;;;;;;38.72;20.08;;;;;;;;;;4895096;29;20139;-76
2023/12/17 10:50:29;;;;;;;34.35;19.02;;;;;;;;;;4897561;29;20428;-75
2023/12/17 10:52:55;;;;;;;37.95;19.88;;;;;;;;;;4906821;29;20474;-74
2023/12/17 10:55:22;;;;;;;37.22;16.88;;;;;;;;;;4908213;29;20028;-77
2023/12/17 10:57:48;;;;;;;30.10;16.23;;;;;;;;;;4907741;29;20064;-72
2023/12/17 11:00:16;;;;;;;32.35;16.38;;;;;;;;;;4912453;29;20032;-74
2023/12/17 11:05:26;;;;;;;32.00;17.67;;;;;;;;;;5076005;28;20403;-79
2023/12/17 11:07:52;;;;;;;33.10;16.90;;;;;;;;;;5055960;28;20029;-75
2023/12/17 11:10:18;;;;;;;29.67;17.15;;;;;;;;;;5058720;28;20037;-75
2023/12/17 11:12:48;;;;;;;30.55;16.40;;;;;;;;;;5053725;28;20029;-75
2023/12/17 11:15:15;;;;;;;26.85;16.23;;;;;;;;;;5065782;28;20028;-77
2023/12/17 11:17:42;;;;;;;28.70;15.30;;;;;;;;;;5060786;28;20135;-74
2023/12/17 11:20:08;;;;;;;25.65;15.15;;;;;;;;;;5049385;28;20421;-77
2023/12/17 11:22:36;;;;;;;33.50;14.88;;;;;;;;;;5058328;28;20033;-74
2023/12/17 11:25:02;;;;;;;24.88;14.55;;;;;;;;;;5064523;28;20493;-75
2023/12/17 11:27:30;;;;;;;29.75;16.42;;;;;;;;;;5058103;28;20045;-73
2023/12/17 11:29:57;;;;;;;23.63;14.80;;;;;;;;;;5064713;28;20029;-74
2023/12/17 11:32:27;;;;;;;26.25;14.85;;;;;;;;;;5055886;28;20074;-76
2023/12/17 11:34:56;;;;;;;25.77;14.50;;;;;;;;;;5061569;28;20120;-79
2023/12/17 11:37:24;;;;;;;27.42;15.30;;;;;;;;;;5056377;28;20032;-76
2023/12/17 11:39:50;;;;;;;28.77;14.93;;;;;;;;;;5064169;28;20074;-76
2023/12/17 11:42:20;;;;;;;28.88;14.32;;;;;;;;;;5055472;28;20024;-80
2023/12/17 11:44:47;;;;;;;27.08;14.18;;;;;;;;;;5054442;28;20487;-74
2023/12/17 11:47:13;;;;;;;25.70;15.15;;;;;;;;;;5061137;28;20044;-78
2023/12/17 11:49:39;;;;;;;20.48;13.30;;;;;;;;;;5057612;28;20037;-77
2023/12/17 11:52:11;;;;;;;24.23;14.18;;;;;;;;;;5066102;28;20025;-77
2023/12/17 11:54:37;;;;;;;20.75;13.52;;;;;;;;;;5050198;28;20037;-78
2023/12/17 11:57:04;;;;;;;22.20;13.43;;;;;;;;;;5055055;28;20032;-78
2023/12/17 11:59:33;;;;;;;20.42;13.77;;;;;;;;;;5058454;28;20143;-75
2023/12/17 12:02:01;;;;;;;27.48;15.30;;;;;;;;;;5059623;28;20024;-75
2023/12/17 12:04:27;;;;;;;29.13;16.15;;;;;;;;;;5054728;28;20115;-73
2023/12/17 12:06:56;;;;;;;28.65;17.80;;;;;;;;;;5047959;28;20029;-74
2023/12/17 12:09:22;;;;;;;52.40;29.23;;;;;;;;;;5060920;28;20029;-74
2023/12/17 12:11:48;;;;;;;27.42;16.55;;;;;;;;;;5061710;28;20040;-73
2023/12/17 12:14:14;;;;;;;34.97;18.38;;;;;;;;;;5050279;28;20036;-75
2023/12/17 12:16:44;;;;;;;33.17;16.98;;;;;;;;;;5043167;28;20029;-76
2023/12/17 12:19:10;;;;;;;26.10;17.13;;;;;;;;;;5041363;28;20440;-75
2023/12/17 12:21:36;;;;;;;31.75;18.95;;;;;;;;;;5043559;28;20036;-77
2023/12/17 12:24:04;;;;;;;28.73;17.95;;;;;;;;;;5041225;28;20052;-78
2023/12/17 12:26:32;;;;;;;34.72;18.10;;;;;;;;;;5041139;28;20033;-81
2023/12/17 12:28:59;;;;;;;33.67;17.85;;;;;;;;;;5044792;28;20429;-76
2023/12/17 12:31:26;;;;;;;32.47;19.58;;;;;;;;;;5033411;28;20018;-77
2023/12/17 12:33:58;;;;;;;35.47;18.23;;;;;;;;;;5051914;28;20041;-78
2023/12/17 12:36:24;;;;;;;30.23;17.52;;;;;;;;;;5034309;28;20510;-77
2023/12/17 12:38:58;;;;;;;29.67;18.63;;;;;;;;;;5057513;28;20029;-77
2023/12/17 12:41:24;;;;;;;30.35;18.52;;;;;;;;;;5041267;28;20029;-76
2023/12/17 12:43:53;;;;;;;33.95;19.08;;;;;;;;;;5041384;28;20041;-77
2023/12/17 12:46:19;;;;;;;28.60;18.35;;;;;;;;;;5040642;28;20253;-78
2023/12/17 12:48:53;;;;;;;31.92;20.65;;;;;;;;;;5038486;28;20067;-82
2023/12/17 12:51:19;;;;;;;31.63;20.77;;;;;;;;;;5044404;28;20135;-77
2023/12/17 12:53:45;;;;;;;27.98;20.17;;;;;;;;;;5049351;28;20028;-79
2023/12/17 12:56:11;;;;;;;33.25;21.08;;;;;;;;;;5042549;28;20021;-77
2023/12/17 12:58:37;;;;;;;33.78;21.48;;;;;;;;;;5050301;28;20118;-77
2023/12/17 13:01:03;;;;;;;32.30;22.13;;;;;;;;;;5040166;28;20021;-75
2023/12/17 13:03:29;;;;;;;122.75;76.40;;;;;;;;;;5033998;28;20049;-75
2023/12/17 13:05:55;;;;;;;34.42;22.95;;;;;;;;;;5041462;28;20916;-78
2023/12/17 13:08:21;;;;;;;30.85;20.33;;;;;;;;;;5051121;28;20055;-75
2023/12/17 13:10:47;;;;;;;29.15;19.98;;;;;;;;;;5051062;28;20774;-77
2023/12/17 13:13:13;;;;;;;27.15;19.38;;;;;;;;;;5047836;28;20036;-79
2023/12/17 13:15:39;;;;;;;32.70;21.33;;;;;;;;;;5034874;28;20071;-76
2023/12/17 13:18:05;;;;;;;33.00;18.75;;;;;;;;;;5027731;28;20032;-78
2023/12/17 13:20:32;;;;;;;29.67;19.35;;;;;;;;;;5036749;28;20035;-77
2023/12/17 13:22:58;;;;;;;35.10;20.50;;;;;;;;;;5037801;28;20147;-77
2023/12/17 13:25:24;;;;;;;27.70;19.42;;;;;;;;;;5037111;28;20041;-79
2023/12/17 13:27:51;;;;;;;30.13;19.80;;;;;;;;;;5038083;28;20079;-77
2023/12/17 13:30:17;;;;;;;33.40;22.05;;;;;;;;;;5049398;28;20077;-76
2023/12/17 13:32:43;;;;;;;28.27;18.90;;;;;;;;;;5033603;28;20086;-77
2023/12/17 13:35:09;;;;;;;30.60;20.08;;;;;;;;;;5042756;28;20087;-76
2023/12/17 13:37:37;;;;;;;101.15;67.20;;;;;;;;;;5035004;28;20502;-76
2023/12/17 13:40:03;;;;;;;30.48;18.67;;;;;;;;;;5038501;28;20066;-79
2023/12/17 13:42:29;;;;;;;28.08;17.98;;;;;;;;;;5031859;28;20272;-79
2023/12/17 13:44:55;;;;;;;31.17;17.23;;;;;;;;;;5052805;28;20602;-77
2023/12/17 13:47:21;;;;;;;29.00;18.05;;;;;;;;;;5064004;28;20352;-78
2023/12/17 13:49:47;;;;;;;24.25;16.55;;;;;;;;;;5049482;28;20387;-80
2023/12/17 13:52:13;;;;;;;27.13;16.58;;;;;;;;;;5048871;28;20032;-79
2023/12/17 13:54:40;;;;;;;26.30;16.70;;;;;;;;;;5049774;28;20036;-78
2023/12/17 13:57:07;;;;;;;31.58;18.13;;;;;;;;;;5049714;28;20032;-77
2023/12/17 13:59:33;;;;;;;32.83;17.80;;;;;;;;;;5049983;28;20021;-78
2023/12/17 14:01:59;;;;;;;38.63;17.25;;;;;;;;;;5049176;28;20029;-77
2023/12/17 14:04:25;;;;;;;26.80;15.90;;;;;;;;;;5049708;28;20049;-78
2023/12/17 14:06:51;;;;;;;25.50;16.13;;;;;;;;;;5050593;28;20043;-77
2023/12/17 14:09:17;;;;;;;30.63;16.10;;;;;;;;;;5047530;28;20051;-77
2023/12/17 14:11:43;;;;;;;29.63;15.98;;;;;;;;;;5048862;28;20037;-77
2023/12/17 14:14:09;;;;;;;33.90;15.75;;;;;;;;;;5049672;28;20041;-77
2023/12/17 14:16:37;;;;;;;27.00;15.50;;;;;;;;;;5046287;28;20089;-77
2023/12/17 14:19:03;;;;;;;23.85;14.80;;;;;;;;;;5043672;28;20028;-77
2023/12/17 14:21:32;;;;;;;29.17;15.05;;;;;;;;;;5048782;28;20029;-77
2023/12/17 14:23:58;;;;;;;28.77;15.13;;;;;;;;;;5047632;28;20112;-77